Aviation Digital Data Service (ADDS)

Output produced by METARs form (1754 UTC 01 March 2017)
found at http://aviationweather.gov/adds/metars/
 
KBFD 011750Z 0118/0218 21009G19KT 6SM -RA SCT050 OVC070 WS015/23040KT 
     TEMPO 0118/0119 3SM RA BR OVC025 
     FM011900 23015G28KT P6SM VCSH BKN035 
     FM020100 27012G22KT 5SM -SHRA BR OVC025 
     FM020800 28015G25KT 4SM -SHSN BR OVC020 
     FM021400 29015G27KT P6SM -SHSN OVC035